createdAt,value
2023-01-27T00:00:20.284Z,466.0339
2023-01-27T00:05:22.151Z,466.0339
2023-01-27T00:10:23.691Z,461.64706
2023-01-27T00:15:25.331Z,457.33333
2023-01-27T00:20:27.122Z,440.77419
2023-01-27T00:25:28.794Z,429.03937
2023-01-27T00:30:30.512Z,436.8
2023-01-27T00:35:32.363Z,448.91803
2023-01-27T00:40:34.245Z,453.09091
2023-01-27T00:45:36.458Z,475.03448
2023-01-27T00:50:38.174Z,461.64706
2023-01-27T00:55:40.059Z,479.65217
2023-01-27T01:00:41.819Z,448.91803
2023-01-27T01:05:43.303Z,425.25
2023-01-27T01:10:44.809Z,414.22901
2023-01-27T01:15:46.552Z,421.51938
2023-01-27T01:20:48.380Z,436.8
2023-01-27T01:25:50.178Z,440.77419
2023-01-27T01:30:52.077Z,461.64706
2023-01-27T01:35:53.622Z,466.0339
2023-01-27T01:40:55.274Z,457.33333
2023-01-27T01:45:57.008Z,453.09091
2023-01-27T01:50:58.744Z,453.09091
2023-01-27T01:56:00.554Z,448.91803
2023-01-27T02:01:02.363Z,457.33333
2023-01-27T02:06:04.045Z,453.09091
2023-01-27T02:11:05.532Z,470.49573
2023-01-27T02:16:07.530Z,453.09091
2023-01-27T02:21:09.431Z,457.33333
2023-01-27T02:26:11.459Z,448.91803
2023-01-27T02:31:13.375Z,440.77419
2023-01-27T02:36:15.184Z,453.09091
2023-01-27T02:41:17.143Z,444.81301
2023-01-27T02:46:19.309Z,440.77419
2023-01-27T02:51:21.176Z,440.77419
2023-01-27T02:56:23.065Z,436.8
2023-01-27T03:01:24.903Z,440.77419
2023-01-27T03:06:27.139Z,436.8
2023-01-27T03:11:29.132Z,440.77419
2023-01-27T03:16:31.178Z,444.81301
2023-01-27T03:21:33.022Z,444.81301
2023-01-27T03:26:34.580Z,436.8
2023-01-27T03:31:36.672Z,432.88889
2023-01-27T03:36:38.514Z,421.51938
2023-01-27T03:41:40.431Z,417.84615
2023-01-27T03:46:42.539Z,403.70149
2023-01-27T03:51:44.420Z,393.63504
2023-01-27T03:56:46.405Z,393.63504
2023-01-27T04:01:48.303Z,371.77778
2023-01-27T04:06:50.255Z,368.82759
2023-01-27T04:11:52.228Z,380.87943
2023-01-27T04:16:54.270Z,384
2023-01-27T04:21:55.829Z,368.82759
2023-01-27T04:26:57.519Z,365.91781
2023-01-27T04:31:59.009Z,371.77778
2023-01-27T04:37:00.536Z,363.04762
2023-01-27T04:42:02.139Z,344
2023-01-27T04:47:04.911Z,349.26316
2023-01-27T04:52:06.421Z,377.80282
2023-01-27T04:57:08.049Z,387.16547
2023-01-27T05:02:09.714Z,393.63504
2023-01-27T05:07:11.658Z,400.2963
2023-01-27T05:12:13.104Z,390.37681
2023-01-27T05:17:15.047Z,396.94118
2023-01-27T05:22:16.842Z,393.63504
2023-01-27T05:27:19.190Z,393.63504
2023-01-27T05:32:21.298Z,380.87943
2023-01-27T05:37:23.260Z,368.82759
2023-01-27T05:42:25.772Z,384
2023-01-27T05:47:27.780Z,393.63504
2023-01-27T05:52:29.913Z,393.63504
2023-01-27T05:57:32.038Z,374.76923
2023-01-27T06:02:33.896Z,377.80282
2023-01-27T06:07:35.609Z,390.37681
2023-01-27T06:12:37.565Z,396.94118
2023-01-27T06:17:39.401Z,390.37681
2023-01-27T06:22:41.120Z,396.94118
2023-01-27T06:27:43.187Z,396.94118
2023-01-27T06:32:44.989Z,400.2963
2023-01-27T06:37:47.219Z,387.16547
2023-01-27T06:42:49.240Z,396.94118
2023-01-27T06:47:51.314Z,436.8
2023-01-27T06:52:53.295Z,393.63504
2023-01-27T06:57:55.146Z,393.63504
2023-01-27T07:02:56.843Z,403.70149
2023-01-27T07:07:58.326Z,396.94118
2023-01-27T07:12:59.772Z,417.84615
2023-01-27T07:18:01.628Z,425.25
2023-01-27T07:23:03.115Z,403.70149
2023-01-27T07:28:04.922Z,410.66667
2023-01-27T07:33:06.823Z,407.15789
2023-01-27T07:38:08.612Z,407.15789
2023-01-27T07:43:10.278Z,429.03937
2023-01-27T07:48:12.255Z,429.03937
2023-01-27T07:53:13.955Z,403.70149
2023-01-27T07:58:15.550Z,429.03937
2023-01-27T08:03:17.318Z,432.88889
2023-01-27T08:08:18.931Z,414.22901
2023-01-27T08:13:20.510Z,421.51938
2023-01-27T08:18:22.179Z,417.84615
2023-01-27T08:23:24.001Z,414.22901
2023-01-27T08:28:26.441Z,425.25
2023-01-27T08:33:28.214Z,425.25
2023-01-27T08:38:30.105Z,421.51938
2023-01-27T08:43:32.314Z,410.66667
2023-01-27T08:48:34.441Z,414.22901
2023-01-27T08:53:36.457Z,410.66667
2023-01-27T08:58:38.285Z,417.84615
2023-01-27T09:03:40.036Z,429.03937
2023-01-27T09:09:16.238Z,421.51938
2023-01-27T09:14:24.876Z,436.8
2023-01-27T09:19:26.763Z,461.64706
2023-01-27T09:24:28.523Z,466.0339
2023-01-27T09:29:30.651Z,514.37037
2023-01-27T09:34:32.311Z,536.30769
2023-01-27T09:39:34.054Z,547.92157
2023-01-27T09:44:36.241Z,560
2023-01-27T09:49:38.087Z,566.22222
2023-01-27T09:54:40.030Z,560
2023-01-27T09:59:42.344Z,628.44444
2023-01-27T10:04:44.370Z,628.44444
2023-01-27T10:09:46.317Z,613.56522
2023-01-27T10:14:48.812Z,695.21951
2023-01-27T10:19:50.906Z,620.92308
2023-01-27T10:24:52.642Z,644
2023-01-27T10:29:54.759Z,723.74684
2023-01-27T10:34:56.379Z,660.27907
2023-01-27T10:39:58.184Z,599.31915
2023-01-27T10:45:00.135Z,677.33333
2023-01-27T10:50:01.819Z,776.43243
2023-01-27T10:55:03.802Z,652.04598
2023-01-27T11:00:35.704Z,754.52632
2023-01-27T11:05:44.167Z,824
2023-01-27T11:10:46.235Z,849.88235
2023-01-27T11:15:48.379Z,921.77778
2023-01-27T11:20:50.463Z,921.77778
2023-01-27T11:25:52.520Z,877.33333
2023-01-27T11:30:54.710Z,836.75362
2023-01-27T11:35:56.664Z,953.83607
2023-01-27T11:40:58.313Z,921.77778
2023-01-27T11:46:00.174Z,970.66667
2023-01-27T11:51:02.028Z,891.69231
2023-01-27T11:56:03.687Z,937.54839
2023-01-27T12:01:05.397Z,863.40299
2023-01-27T12:06:07.450Z,849.88235
2023-01-27T12:11:09.596Z,787.83562
2023-01-27T12:16:11.888Z,754.52632
2023-01-27T12:21:13.880Z,877.33333
2023-01-27T12:26:15.933Z,787.83562
2023-01-27T12:31:18.123Z,811.60563
2023-01-27T12:36:20.342Z,799.55556
2023-01-27T12:41:22.960Z,787.83562
2023-01-27T12:46:25.123Z,836.75362
2023-01-27T12:51:26.790Z,849.88235
2023-01-27T12:56:28.896Z,787.83562
2023-01-27T13:01:31.251Z,776.43243
2023-01-27T13:06:33.557Z,787.83562
2023-01-27T13:11:35.646Z,754.52632
2023-01-27T13:16:37.559Z,704.49383
2023-01-27T13:21:39.293Z,704.49383
2023-01-27T13:26:40.801Z,723.74684
2023-01-27T13:31:42.375Z,744
2023-01-27T13:36:44.149Z,704.49383
2023-01-27T13:41:45.872Z,686.16867
2023-01-27T13:46:47.653Z,733.74359
2023-01-27T13:51:49.618Z,733.74359
2023-01-27T13:56:51.209Z,660.27907
2023-01-27T14:01:52.958Z,660.27907
2023-01-27T14:06:54.708Z,660.27907
2023-01-27T14:11:56.208Z,579.05155
2023-01-27T14:16:57.964Z,525.13208
2023-01-27T14:21:59.824Z,636.13483
2023-01-27T14:27:01.369Z,613.56522
2023-01-27T14:32:03.166Z,579.05155
2023-01-27T14:37:04.738Z,572.57143
2023-01-27T14:42:06.261Z,579.05155
2023-01-27T14:47:08.102Z,599.31915
2023-01-27T14:52:10.085Z,599.31915
2023-01-27T14:57:11.721Z,628.44444
2023-01-27T15:02:13.584Z,620.92308
2023-01-27T15:07:15.122Z,592.42105
2023-01-27T15:12:16.723Z,572.57143
2023-01-27T15:17:18.347Z,592.42105
2023-01-27T15:22:20.358Z,585.66667
2023-01-27T15:27:22.125Z,660.27907
2023-01-27T15:32:23.987Z,668.70588
2023-01-27T15:37:25.533Z,660.27907
2023-01-27T15:42:27.181Z,652.04598
2023-01-27T15:47:28.693Z,704.49383
2023-01-27T15:52:30.729Z,677.33333
2023-01-27T15:57:32.668Z,686.16867
2023-01-27T16:02:34.867Z,668.70588
2023-01-27T16:07:36.692Z,733.74359
2023-01-27T16:12:38.631Z,704.49383
2023-01-27T16:17:40.727Z,695.21951
2023-01-27T16:22:42.502Z,704.49383
2023-01-27T16:27:43.993Z,733.74359
2023-01-27T16:32:45.571Z,714
2023-01-27T16:37:47.241Z,686.16867
2023-01-27T16:42:48.790Z,677.33333
2023-01-27T16:47:50.714Z,620.92308
2023-01-27T16:52:52.690Z,620.92308
2023-01-27T16:57:54.958Z,592.42105
2023-01-27T17:02:56.777Z,606.36559
2023-01-27T17:07:58.265Z,599.31915
2023-01-27T17:12:59.735Z,592.42105
2023-01-27T17:18:01.468Z,579.05155
2023-01-27T17:23:03.476Z,560
2023-01-27T17:28:05.307Z,560
2023-01-27T17:33:07.138Z,530.66667
2023-01-27T17:38:09.118Z,525.13208
2023-01-27T17:43:10.955Z,494
2023-01-27T17:48:12.814Z,414.22901
2023-01-27T17:53:15.110Z,484.35088
2023-01-27T17:58:17.496Z,479.65217
2023-01-27T18:03:19.549Z,466.0339
2023-01-27T18:08:21.417Z,489.13274
2023-01-27T18:13:23.498Z,498.95495
2023-01-27T18:18:25.979Z,494
2023-01-27T18:23:29.324Z,484.35088
2023-01-27T18:28:32.244Z,470.49573
2023-01-27T18:33:35.541Z,475.03448
2023-01-27T18:38:38.747Z,494
2023-01-27T18:43:42.603Z,514.37037
2023-01-27T18:48:46.708Z,498.95495
2023-01-27T18:53:51.299Z,494
2023-01-27T18:58:55.802Z,504
2023-01-27T19:03:59.594Z,504
2023-01-27T19:09:02.892Z,509.13761
2023-01-27T19:14:05.984Z,519.70093
2023-01-27T19:19:10.038Z,494
2023-01-27T19:24:14.731Z,504
2023-01-27T19:29:18.179Z,479.65217
2023-01-27T19:34:21.698Z,444.81301
2023-01-27T19:39:25.699Z,444.81301
2023-01-27T19:44:29.240Z,436.8
2023-01-27T19:49:33.052Z,429.03937
2023-01-27T19:54:37.566Z,421.51938
2023-01-27T19:59:41.696Z,414.22901
2023-01-27T20:04:45.978Z,400.2963
2023-01-27T20:09:50.208Z,417.84615
2023-01-27T20:14:53.966Z,417.84615
2023-01-27T20:19:58.141Z,417.84615
2023-01-27T20:25:02.105Z,407.15789
2023-01-27T20:30:07.963Z,417.84615
2023-01-27T20:35:10.853Z,425.25
2023-01-27T20:40:13.865Z,417.84615
2023-01-27T20:45:17.104Z,365.91781
2023-01-27T20:50:20.484Z,256.69036
2023-01-27T20:55:24.595Z,248.9505
2023-01-27T21:00:27.552Z,256.69036
2023-01-27T21:05:30.678Z,261.52577
2023-01-27T21:10:33.717Z,268.21053
2023-01-27T21:15:36.836Z,312.86228
2023-01-27T21:20:40.141Z,324.24691
2023-01-27T21:25:43.261Z,346.61438
2023-01-27T21:30:46.080Z,351.94702
2023-01-27T21:35:48.715Z,357.42282
2023-01-27T21:40:51.675Z,414.22901
2023-01-27T21:45:54.390Z,440.77419
2023-01-27T21:50:56.669Z,432.88889
2023-01-27T21:55:59.404Z,429.03937
2023-01-27T22:01:01.133Z,436.8
2023-01-27T22:06:02.942Z,453.09091
2023-01-27T22:11:04.453Z,448.91803
2023-01-27T22:16:05.995Z,448.91803
2023-01-27T22:21:07.790Z,457.33333
2023-01-27T22:26:09.473Z,453.09091
2023-01-27T22:31:11.284Z,453.09091
2023-01-27T22:36:12.810Z,448.91803
2023-01-27T22:41:14.445Z,466.0339
2023-01-27T22:46:15.966Z,475.03448
2023-01-27T22:51:17.884Z,475.03448
2023-01-27T22:56:19.816Z,453.09091
2023-01-27T23:01:21.663Z,429.03937
2023-01-27T23:06:23.452Z,436.8
2023-01-27T23:11:25.262Z,453.09091
2023-01-27T23:16:27.302Z,461.64706
2023-01-27T23:21:29.348Z,470.49573
2023-01-27T23:26:30.989Z,457.33333
2023-01-27T23:31:32.750Z,453.09091
2023-01-27T23:36:34.535Z,470.49573
2023-01-27T23:41:35.985Z,461.64706
2023-01-27T23:46:37.541Z,453.09091
2023-01-27T23:51:39.266Z,436.8
2023-01-27T23:56:41.199Z,436.8
